createdAt,value
2019-04-01T13:06:40.991Z,99242
2019-04-01T13:09:13.410Z,99238
2019-04-01T13:10:27.146Z,99239
2019-04-01T13:11:40.876Z,99237
2019-04-01T13:12:54.651Z,99236
2019-04-01T13:14:08.386Z,99233
2019-04-01T13:15:22.094Z,99232
2019-04-01T13:16:35.813Z,99229
2019-04-01T13:17:50.064Z,99227
2019-04-01T13:19:03.272Z,99227
2019-04-01T13:20:17.021Z,99227
2019-04-01T13:21:34.469Z,99223
2019-04-01T13:22:45.499Z,99219
2019-04-01T13:23:59.232Z,99217
2019-04-01T13:25:12.969Z,99218
2019-04-01T13:26:27.540Z,99212
2019-04-01T13:27:41.274Z,99212
2019-04-01T13:28:55.348Z,99208
2019-04-01T13:30:08.810Z,99206
2019-04-01T13:31:24.286Z,99204
2019-04-01T13:32:38.044Z,99203
2019-04-01T13:33:51.771Z,99200
2019-04-01T13:35:05.504Z,99194
2019-04-01T13:36:19.574Z,99192
2019-04-01T13:37:32.982Z,99191
2019-04-01T13:38:47.703Z,99191
2019-04-01T13:40:03.018Z,99187
2019-04-01T13:41:16.284Z,99186
2019-04-01T13:42:30.951Z,99187
2019-04-01T13:43:44.709Z,99187
2019-04-01T13:45:01.634Z,99180
2019-04-01T13:46:12.190Z,99179
2019-04-01T13:47:25.911Z,99176
2019-04-01T13:48:40.682Z,99176
2019-04-01T13:49:55.362Z,99176
2019-04-01T13:51:09.622Z,99175
2019-04-01T13:52:23.354Z,99167
2019-04-01T13:53:37.138Z,99166
2019-04-01T13:54:50.869Z,99162
2019-04-01T13:56:04.602Z,99161
2019-04-01T13:57:18.321Z,99161
2019-04-01T13:58:32.079Z,99159
2019-04-01T13:59:49.309Z,99158
2019-04-01T14:00:59.518Z,99156
2019-04-01T14:02:13.259Z,99156
2019-04-01T14:03:28.359Z,99152
2019-04-01T14:04:41.732Z,99152
2019-04-01T14:05:55.446Z,99153
2019-04-01T14:07:09.179Z,99145
2019-04-01T14:08:22.904Z,99145
2019-04-01T14:09:36.637Z,99145
2019-04-01T14:10:51.375Z,99146
2019-04-01T14:12:06.162Z,99145
2019-04-01T14:13:19.916Z,99143
2019-04-01T14:14:33.660Z,99140
2019-04-01T14:15:47.428Z,99142
2019-04-01T14:17:01.183Z,99141
2019-04-01T14:18:14.949Z,99141
2019-04-01T14:19:28.784Z,99136
2019-04-01T14:20:42.639Z,99134
2019-04-01T14:21:56.364Z,99131
2019-04-01T14:23:10.078Z,99127
2019-04-01T14:24:23.819Z,99129
2019-04-01T14:25:37.565Z,99126
2019-04-01T14:26:51.289Z,99126
2019-04-01T14:28:05.007Z,99118
2019-04-01T14:29:18.756Z,99125
2019-04-01T14:30:32.481Z,99122
2019-04-01T14:31:46.197Z,99116
2019-04-01T14:32:59.928Z,99115
2019-04-01T14:34:22.530Z,99115
2019-04-01T14:35:27.380Z,99112
2019-04-01T14:36:41.105Z,99113
2019-04-01T14:37:57.986Z,99111
2019-04-01T14:39:08.570Z,99107
2019-04-01T14:40:22.298Z,99109
2019-04-01T14:41:36.019Z,99104
2019-04-01T14:42:49.762Z,99107
2019-04-01T14:44:03.513Z,99101
2019-04-01T14:45:17.216Z,99101
2019-04-01T14:46:30.947Z,99097
2019-04-01T14:47:56.298Z,99097
2019-04-01T14:49:00.392Z,99093
2019-04-01T14:50:13.079Z,99087
2019-04-01T14:51:26.809Z,99090
2019-04-01T14:52:41.336Z,99089
2019-04-01T14:53:54.257Z,99088
2019-04-01T14:55:08.053Z,99091
2019-04-01T14:56:21.774Z,99088
2019-04-01T14:57:35.511Z,99088
2019-04-01T14:58:49.260Z,99085
2019-04-01T15:00:02.985Z,99083
2019-04-01T15:01:16.713Z,99078
2019-04-01T15:02:31.441Z,99076
2019-04-01T15:03:45.165Z,99074
2019-04-01T15:04:58.893Z,99077
2019-04-01T15:06:12.611Z,99071
2019-04-01T15:07:26.356Z,99070
2019-04-01T15:08:40.068Z,99070
2019-04-01T15:09:53.812Z,99064
2019-04-01T15:11:07.542Z,99067
2019-04-01T15:12:21.264Z,99066
2019-04-01T15:13:35.000Z,99064
2019-04-01T15:14:48.750Z,99062
2019-04-01T15:16:02.470Z,99058
2019-04-01T15:17:16.548Z,99054
2019-04-01T15:18:29.932Z,99057
2019-04-01T15:19:43.675Z,99055
2019-04-01T15:20:57.390Z,99052
2019-04-01T15:22:12.091Z,99047
2019-04-01T15:23:27.440Z,99050
2019-04-01T15:24:40.536Z,99048
2019-04-01T15:25:54.678Z,99041
2019-04-01T15:27:07.985Z,99040
2019-04-01T15:28:22.706Z,99035
2019-04-01T15:29:37.440Z,99038
2019-04-01T15:30:51.205Z,99038
2019-04-01T15:32:04.915Z,99037
2019-04-01T15:33:18.640Z,99036
2019-04-01T15:34:32.368Z,99033
2019-04-01T15:35:46.109Z,99029
2019-04-01T15:36:59.843Z,99027
2019-04-01T15:38:14.568Z,99027
2019-04-01T15:39:28.278Z,99023
2019-04-01T15:40:42.004Z,99021
2019-04-01T15:41:56.721Z,99017
2019-04-01T15:43:11.872Z,99019
2019-04-01T15:44:24.153Z,99018
2019-04-01T15:45:38.864Z,99016
2019-04-01T15:46:52.593Z,99016
2019-04-01T15:48:07.534Z,99015
2019-04-01T15:49:20.025Z,99015
2019-04-01T15:50:33.756Z,99011
2019-04-01T15:51:47.486Z,99013
2019-04-01T15:53:01.189Z,99009
2019-04-01T15:54:14.913Z,99007
2019-04-01T15:55:28.676Z,99006
2019-04-01T15:56:42.392Z,99001
2019-04-01T15:57:56.106Z,99005
2019-04-01T15:59:09.838Z,99004
2019-04-01T16:00:23.577Z,99001
2019-04-01T16:01:37.305Z,98996
2019-04-01T16:02:51.031Z,98998
2019-04-01T16:04:04.795Z,98994
2019-04-01T16:05:18.508Z,98992
2019-04-01T16:06:32.227Z,98991
2019-04-01T16:07:46.005Z,98989
2019-04-01T16:08:59.811Z,98992
2019-04-01T16:10:13.545Z,98990
2019-04-01T16:11:28.320Z,98989
2019-04-01T16:12:42.096Z,98987
2019-04-01T16:13:55.876Z,98986
2019-04-01T16:15:09.614Z,98985
2019-04-01T16:16:23.404Z,98985
2019-04-01T16:17:37.162Z,98984
2019-04-01T16:18:50.954Z,98981
2019-04-01T16:20:04.756Z,98977
2019-04-01T16:21:18.481Z,98982
2019-04-01T16:22:32.214Z,98980
2019-04-01T16:23:47.048Z,98978
2019-04-01T16:24:59.683Z,98976
2019-04-01T16:26:14.437Z,98974
2019-04-01T16:27:28.169Z,98975
2019-04-01T16:28:42.902Z,98972
2019-04-01T16:29:56.630Z,98977
2019-04-01T16:31:10.370Z,98982
2019-04-01T16:32:24.087Z,98980
2019-04-01T16:33:37.815Z,98980
2019-04-01T16:34:51.549Z,98980
2019-04-01T16:36:05.305Z,98986
2019-04-01T16:37:19.028Z,98985
2019-04-01T16:38:32.754Z,98984
2019-04-01T16:39:46.493Z,98984
2019-04-01T16:41:00.286Z,98986
2019-04-01T16:42:14.012Z,98983
2019-04-01T16:43:27.738Z,98984
2019-04-01T16:44:41.501Z,98979
2019-04-01T16:45:56.038Z,98981
2019-04-01T16:47:10.058Z,98981
2019-04-01T16:48:22.703Z,98986
2019-04-01T16:49:36.682Z,98985
2019-04-01T16:50:50.167Z,98977
2019-04-01T16:52:03.967Z,98985
2019-04-01T16:53:17.678Z,98984
2019-04-01T16:54:31.395Z,98984
2019-04-01T16:55:45.124Z,98979
2019-04-01T16:56:58.853Z,98984
2019-04-01T16:58:12.611Z,98980
2019-04-01T16:59:28.004Z,98982
2019-04-01T17:00:40.134Z,98979
2019-04-01T17:01:53.801Z,98977
2019-04-01T17:03:08.587Z,98978
2019-04-01T17:04:22.291Z,98971
2019-04-01T17:05:36.055Z,98969
2019-04-01T17:06:49.793Z,98975
2019-04-01T17:08:03.582Z,98975
2019-04-01T17:09:17.301Z,98977
2019-04-01T17:10:31.064Z,98975
2019-04-01T17:11:44.769Z,98975
2019-04-01T17:13:01.357Z,98976
2019-04-01T17:14:14.181Z,98973
2019-04-01T17:15:27.897Z,98975
2019-04-01T17:16:41.689Z,98974
2019-04-01T17:17:55.437Z,98976
2019-04-01T17:19:09.171Z,98973
2019-04-01T17:20:22.947Z,98973
2019-04-01T17:21:37.626Z,98969
2019-04-01T17:22:51.383Z,98973
2019-04-01T17:24:05.117Z,98974
2019-04-01T17:25:18.836Z,98970
2019-04-01T17:26:32.542Z,98972
2019-04-01T17:27:46.342Z,98974
2019-04-01T17:29:00.060Z,98970
2019-04-01T17:30:13.789Z,98972
2019-04-01T17:31:27.520Z,98972
2019-04-01T17:32:41.249Z,98977
2019-04-01T17:33:54.985Z,98971
2019-04-01T17:35:08.711Z,98972
2019-04-01T17:36:22.445Z,98971
2019-04-01T17:37:36.198Z,98970
2019-04-01T17:38:49.930Z,98970
2019-04-01T17:40:03.660Z,98971
2019-04-01T17:41:18.380Z,98971
2019-04-01T17:42:32.113Z,98970
2019-04-01T17:43:46.828Z,98965
2019-04-01T17:45:00.551Z,98966
2019-04-01T17:46:14.276Z,98966
2019-04-01T17:47:28.031Z,98966
2019-04-01T17:48:41.744Z,98967
2019-04-01T17:49:55.463Z,98968
2019-04-01T17:51:09.188Z,98966
2019-04-01T17:52:22.912Z,98969
2019-04-01T17:53:36.791Z,98963
2019-04-01T17:54:51.501Z,98969
2019-04-01T17:56:05.225Z,98966
2019-04-01T17:57:18.958Z,98962
2019-04-01T17:58:32.717Z,98962
2019-04-01T17:59:46.434Z,98966
2019-04-01T18:01:00.157Z,98965
2019-04-01T18:02:13.877Z,98965
2019-04-01T18:03:27.619Z,98961
2019-04-01T18:04:41.347Z,98962
2019-04-01T18:05:55.063Z,98959
2019-04-01T18:07:08.783Z,98957
2019-04-01T18:08:23.513Z,98958
2019-04-01T18:09:37.233Z,98955
2019-04-01T18:10:50.961Z,98958
2019-04-01T18:12:04.691Z,98956
2019-04-01T18:13:18.422Z,98957
2019-04-01T18:14:32.180Z,98958
2019-04-01T18:15:45.917Z,98958
2019-04-01T18:16:59.630Z,98957
2019-04-01T18:18:26.000Z,98962
2019-04-01T18:19:28.062Z,98967
2019-04-01T18:20:41.787Z,98962
2019-04-01T18:21:55.516Z,98956
2019-04-01T18:23:10.287Z,98963
2019-04-01T18:24:24.008Z,98958
2019-04-01T18:25:37.745Z,98959
2019-04-01T18:26:51.477Z,98957
2019-04-01T18:28:05.214Z,98961
2019-04-01T18:29:19.280Z,98955
2019-04-01T18:30:33.035Z,98956
2019-04-01T18:31:46.781Z,98953
2019-04-01T18:33:00.506Z,98951
2019-04-01T18:34:14.251Z,98957
2019-04-01T18:35:29.004Z,98955
2019-04-01T18:36:43.747Z,98954
2019-04-01T18:37:57.469Z,98956
2019-04-01T18:39:11.201Z,98955
2019-04-01T18:40:32.318Z,98954
2019-04-01T18:41:38.629Z,98953
2019-04-01T18:42:52.341Z,98952
2019-04-01T18:44:06.081Z,98952
2019-04-01T18:45:19.828Z,98957
2019-04-01T18:46:33.555Z,98957
2019-04-01T18:47:47.297Z,98950
2019-04-01T18:49:01.073Z,98956
2019-04-01T18:50:14.887Z,98959
2019-04-01T18:51:28.482Z,98957
2019-04-01T18:52:42.199Z,98956
2019-04-01T18:53:55.938Z,98956
2019-04-01T18:55:09.638Z,98955
2019-04-01T18:56:23.386Z,98958
2019-04-01T18:57:37.089Z,98955
2019-04-01T18:58:50.816Z,98956
2019-04-01T19:00:05.556Z,98958
2019-04-01T19:01:19.286Z,98958
2019-04-01T19:02:33.008Z,98957
2019-04-01T19:03:46.738Z,98954
2019-04-01T19:05:00.560Z,98964
2019-04-01T19:06:14.278Z,98955
2019-04-01T19:07:28.025Z,98960
2019-04-01T19:08:41.750Z,98957
2019-04-01T19:10:05.455Z,98957
2019-04-01T19:11:10.088Z,98964
2019-04-01T19:12:22.875Z,98958
2019-04-01T19:13:37.616Z,98960
2019-04-01T19:14:51.349Z,98959
2019-04-01T19:16:06.271Z,98961
2019-04-01T19:17:18.765Z,98962
2019-04-01T19:18:32.495Z,98963
2019-04-01T19:19:48.583Z,98962
2019-04-01T19:21:04.478Z,98962
2019-04-01T19:22:13.658Z,98961
2019-04-01T19:23:27.392Z,98959
2019-04-01T19:24:41.195Z,98963
2019-04-01T19:25:55.200Z,98961
2019-04-01T19:27:09.653Z,98958
2019-04-01T19:28:23.392Z,98960
2019-04-01T19:29:37.125Z,98963
2019-04-01T19:30:50.869Z,98963
2019-04-01T19:32:04.595Z,98961
2019-04-01T19:33:18.293Z,98962
2019-04-01T19:34:32.016Z,98964
2019-04-01T19:35:45.816Z,98964
2019-04-01T19:36:59.531Z,98964
2019-04-01T19:38:13.261Z,98960
2019-04-01T19:39:29.962Z,98961
2019-04-01T19:40:40.691Z,98955
2019-04-01T19:41:54.416Z,98957
2019-04-01T19:43:08.147Z,98959
2019-04-01T19:44:21.874Z,98959
2019-04-01T19:45:35.606Z,98966
2019-04-01T19:46:50.334Z,98960
2019-04-01T19:48:04.065Z,98960
2019-04-01T19:49:17.811Z,98958
2019-04-01T19:50:31.549Z,98955
2019-04-01T19:51:45.260Z,98960
2019-04-01T19:52:59.096Z,98957
2019-04-01T19:54:12.799Z,98957
2019-04-01T19:55:27.496Z,98957
2019-04-01T19:56:41.231Z,98956
2019-04-01T19:57:56.031Z,98952
2019-04-01T19:59:08.669Z,98959
2019-04-01T20:00:27.897Z,98954
2019-04-01T20:01:36.119Z,98951
2019-04-01T20:02:49.857Z,98955
2019-04-01T20:04:03.578Z,98952
2019-04-01T20:05:17.339Z,98952
2019-04-01T20:06:31.146Z,98953
2019-04-01T20:07:44.858Z,98957
2019-04-01T20:08:59.591Z,98951
2019-04-01T20:10:13.317Z,98951
2019-04-01T20:11:28.077Z,98950
2019-04-01T20:12:41.824Z,98950
2019-04-01T20:13:55.532Z,98951
2019-04-01T20:15:09.592Z,98950
2019-04-01T20:16:23.018Z,98946
2019-04-01T20:17:36.759Z,98947
2019-04-01T20:18:51.485Z,98947
2019-04-01T20:20:06.233Z,98943
2019-04-01T20:21:19.957Z,98949
2019-04-01T20:22:33.680Z,98944
2019-04-01T20:23:47.408Z,98946
2019-04-01T20:25:01.113Z,98947
2019-04-01T20:26:14.903Z,98943
2019-04-01T20:27:28.613Z,98940
2019-04-01T20:28:42.528Z,98941
2019-04-01T20:29:56.074Z,98940
2019-04-01T20:31:10.829Z,98943
2019-04-01T20:32:24.543Z,98941
2019-04-01T20:33:38.260Z,98939
2019-04-01T20:34:57.049Z,98939
2019-04-01T20:36:05.716Z,98941
2019-04-01T20:37:20.456Z,98936
2019-04-01T20:38:34.193Z,98935
2019-04-01T20:39:47.928Z,98936
2019-04-01T20:41:01.644Z,98939
2019-04-01T20:42:17.032Z,98933
2019-04-01T20:43:29.180Z,98932
2019-04-01T20:44:42.907Z,98931
2019-04-01T20:45:56.661Z,98931
2019-04-01T20:47:11.399Z,98928
2019-04-01T20:48:25.133Z,98925
2019-04-01T20:49:38.846Z,98924
2019-04-01T20:50:54.982Z,98928
2019-04-01T20:52:06.327Z,98918
2019-04-01T20:53:20.044Z,98920
2019-04-01T20:54:33.775Z,98921
2019-04-01T20:55:48.517Z,98915
2019-04-01T20:57:01.212Z,98919
2019-04-01T20:58:14.938Z,98916
2019-04-01T20:59:28.664Z,98913
2019-04-01T21:00:42.388Z,98909
2019-04-01T21:01:56.145Z,98911
2019-04-01T21:03:09.874Z,98913
2019-04-01T21:04:23.611Z,98912
2019-04-01T21:05:37.326Z,98912
2019-04-01T21:06:51.082Z,98909
2019-04-01T21:08:04.832Z,98904
2019-04-01T21:09:18.578Z,98906
2019-04-01T21:10:32.316Z,98906
2019-04-01T21:11:46.051Z,98903
2019-04-01T21:12:59.809Z,98897
2019-04-01T21:14:13.552Z,98898
2019-04-01T21:15:27.317Z,98897
2019-04-01T21:16:41.060Z,98899
2019-04-01T21:17:54.823Z,98895
2019-04-01T21:19:08.558Z,98893
2019-04-01T21:20:22.279Z,98892
2019-04-01T21:21:36.019Z,98888
2019-04-01T21:22:49.801Z,98891
2019-04-01T21:24:05.129Z,98888
2019-04-01T21:25:17.291Z,98889
2019-04-01T21:26:31.020Z,98883
2019-04-01T21:27:44.793Z,98882
2019-04-01T21:28:58.512Z,98886
2019-04-01T21:30:12.243Z,98880
2019-04-01T21:31:25.981Z,98881
2019-04-01T21:32:39.711Z,98879
2019-04-01T21:33:53.489Z,98877
2019-04-01T21:35:09.166Z,98876
2019-04-01T21:36:21.943Z,98880
2019-04-01T21:37:35.733Z,98876
2019-04-01T21:38:49.442Z,98876
2019-04-01T21:40:03.179Z,98878
2019-04-01T21:41:16.901Z,98881
2019-04-01T21:42:30.639Z,98871
2019-04-01T21:43:44.414Z,98873
2019-04-01T21:44:58.146Z,98874
2019-04-01T21:46:11.883Z,98878
2019-04-01T21:47:25.618Z,98871
2019-04-01T21:48:39.757Z,98872
2019-04-01T21:49:52.133Z,98871
2019-04-01T21:51:06.860Z,98876
2019-04-01T21:52:21.433Z,98866
2019-04-01T21:53:35.183Z,98866
2019-04-01T21:54:48.933Z,98869
2019-04-01T21:56:02.661Z,98865
2019-04-01T21:57:16.397Z,98863
2019-04-01T21:58:30.164Z,98864
2019-04-01T21:59:45.135Z,98859
2019-04-01T22:00:58.188Z,98858
2019-04-01T22:02:11.911Z,98859
2019-04-01T22:03:26.638Z,98859
2019-04-01T22:04:41.273Z,98856
2019-04-01T22:05:53.128Z,98853
2019-04-01T22:07:06.892Z,98854
2019-04-01T22:08:20.632Z,98850
2019-04-01T22:09:34.485Z,98848
2019-04-01T22:10:49.116Z,98844
2019-04-01T22:12:02.839Z,98843
2019-04-01T22:13:16.603Z,98843
2019-04-01T22:14:30.335Z,98843
2019-04-01T22:15:44.069Z,98842
2019-04-01T22:16:57.791Z,98840
2019-04-01T22:18:11.550Z,98842
2019-04-01T22:19:25.307Z,98840
2019-04-01T22:20:40.077Z,98839
2019-04-01T22:21:52.757Z,98838
2019-04-01T22:23:06.694Z,98842
2019-04-01T22:24:20.299Z,98836
2019-04-01T22:25:34.031Z,98838
2019-04-01T22:26:47.770Z,98840
2019-04-01T22:28:01.506Z,98839
2019-04-01T22:29:15.276Z,98833
2019-04-01T22:30:28.999Z,98831
2019-04-01T22:31:43.257Z,98832
2019-04-01T22:32:56.470Z,98828
2019-04-01T22:34:10.223Z,98827
2019-04-01T22:35:23.964Z,98825
2019-04-01T22:36:39.892Z,98825
2019-04-01T22:37:52.363Z,98822
2019-04-01T22:39:07.086Z,98818
2019-04-01T22:40:21.862Z,98823
2019-04-01T22:41:35.541Z,98818
2019-04-01T22:42:49.266Z,98816
2019-04-01T22:44:03.022Z,98813
2019-04-01T22:45:16.751Z,98814
2019-04-01T22:46:30.480Z,98816
2019-04-01T22:47:45.260Z,98807
2019-04-01T22:48:57.959Z,98808
2019-04-01T22:50:12.695Z,98809
2019-04-01T22:51:26.418Z,98807
2019-04-01T22:52:42.107Z,98801
2019-04-01T22:53:53.882Z,98801
2019-04-01T22:55:07.674Z,98799
2019-04-01T22:56:21.414Z,98794
2019-04-01T22:57:35.143Z,98794
2019-04-01T22:58:48.869Z,98792
2019-04-01T23:00:03.633Z,98798
2019-04-01T23:01:17.361Z,98787
2019-04-01T23:02:31.087Z,98793
2019-04-01T23:03:44.832Z,98790
2019-04-01T23:04:58.576Z,98791
2019-04-01T23:06:12.306Z,98791
2019-04-01T23:07:27.060Z,98791
2019-04-01T23:08:40.801Z,98789
2019-04-01T23:09:54.561Z,98785
2019-04-01T23:11:08.301Z,98782
2019-04-01T23:12:22.342Z,98784
2019-04-01T23:13:35.782Z,98784
2019-04-01T23:14:49.535Z,98787
2019-04-01T23:16:03.272Z,98787
2019-04-01T23:17:17.009Z,98781
2019-04-01T23:18:30.722Z,98784
2019-04-01T23:19:44.511Z,98778
2019-04-01T23:20:58.246Z,98774
2019-04-01T23:22:11.975Z,98770
2019-04-01T23:23:25.730Z,98774
2019-04-01T23:24:39.461Z,98770
2019-04-01T23:25:53.208Z,98774
2019-04-01T23:27:06.920Z,98772
2019-04-01T23:28:20.652Z,98772
2019-04-01T23:29:34.388Z,98768
2019-04-01T23:30:49.031Z,98765
2019-04-01T23:32:01.904Z,98770
2019-04-01T23:33:16.697Z,98775
2019-04-01T23:34:30.371Z,98774
2019-04-01T23:35:44.124Z,98772
2019-04-01T23:36:57.864Z,98773
2019-04-01T23:38:11.592Z,98768
2019-04-01T23:39:25.332Z,98769
2019-04-01T23:40:39.064Z,98769
2019-04-01T23:41:52.798Z,98767
2019-04-01T23:43:06.518Z,98763
2019-04-01T23:44:20.272Z,98762
2019-04-01T23:45:34.018Z,98759
2019-04-01T23:46:48.019Z,98758
2019-04-01T23:48:01.475Z,98759
2019-04-01T23:49:15.231Z,98754
2019-04-01T23:50:28.976Z,98757
2019-04-01T23:51:42.715Z,98754
2019-04-01T23:52:56.450Z,98753
2019-04-01T23:54:10.187Z,98755
2019-04-01T23:55:23.946Z,98748
2019-04-01T23:56:37.671Z,98742
2019-04-01T23:57:53.192Z,98748
2019-04-01T23:59:05.939Z,98745
